METAR Data
IDs: Format: Raw Decoded Include TAF

Data at: 1326 UTC 07 Jul 2020

KTVY 071315Z AUTO 19014KT 10SM CLR 26/01 A2988 RMK AO2
KTVY 071255Z AUTO 19012KT 10SM CLR 26/01 A2987 RMK AO2
KTVY 071235Z AUTO 19011KT 10SM CLR 26/01 A2986 RMK AO2
KTVY 071215Z AUTO 19015G19KT 10SM CLR 26/01 A2985 RMK AO2
KTVY 071155Z AUTO 18014G19KT 10SM CLR 27/01 A2984 RMK AO2
KTVY 071135Z AUTO 18015G21KT 10SM CLR 27/01 A2984 RMK AO2
KTVY 071115Z AUTO 19013KT 10SM CLR 27/01 A2984 RMK AO2
KTVY 071055Z AUTO 18014KT 10SM CLR 27/02 A2983 RMK AO2
KTVY 071035Z AUTO 18018G21KT 10SM CLR 28/02 A2984 RMK AO2
KTVY 071015Z AUTO 18018G23KT 10SM CLR 28/02 A2983 RMK AO2
KTVY 070955Z AUTO 18016G24KT 10SM CLR 28/02 A2982 RMK AO2
KTVY 070935Z AUTO 18016G22KT 10SM CLR 28/02 A2983 RMK AO2
KTVY 070915Z AUTO 17018KT 10SM CLR 28/02 A2983 RMK AO2
KTVY 070855Z AUTO 17018G27KT 10SM CLR 28/02 A2983 RMK AO2
KTVY 070835Z AUTO 17018G25KT 10SM CLR 28/02 A2984 RMK AO2
KTVY 070815Z AUTO 16017G22KT 10SM CLR 28/02 A2984 RMK AO2
KTVY 070755Z AUTO 17019G26KT 10SM CLR 29/03 A2984 RMK AO2
KTVY 070735Z AUTO 16018G21KT 10SM CLR 29/03 A2984 RMK AO2
KTVY 070715Z AUTO 17020G25KT 10SM CLR 30/03 A2984 RMK AO2
KTVY 070655Z AUTO 17018G21KT 10SM CLR 29/03 A2983 RMK AO2
KTVY 070635Z AUTO 17020G25KT 10SM CLR 29/03 A2982 RMK AO2
KTVY 070615Z AUTO 17019G24KT 10SM CLR 29/04 A2982 RMK AO2
KTVY 070555Z AUTO 18016KT 10SM CLR 26/04 A2982 RMK AO2
KTVY 070535Z AUTO 19011KT 10SM CLR 24/07 A2982 RMK AO2
KTVY 070515Z AUTO 18011KT 10SM CLR 22/07 A2983 RMK AO2
KTVY 070455Z AUTO 17009KT 10SM CLR 22/07 A2983 RMK AO2
KTVY 070435Z AUTO 17008KT 10SM CLR 21/08 A2983 RMK AO2
KTVY 070415Z AUTO 18008KT 10SM CLR 22/08 A2983 RMK AO2
KTVY 070355Z AUTO 17010KT 10SM CLR 23/08 A2983 RMK AO2
KTVY 070335Z AUTO 21009KT 10SM CLR 24/08 A2982 RMK AO2
KTVY 070315Z AUTO 19006KT 10SM CLR 23/09 A2983 RMK AO2
KTVY 070255Z AUTO 20005KT 10SM CLR 26/11 A2984 RMK AO2
KTVY 070235Z AUTO 20005KT 10SM CLR 28/13 A2984 RMK AO2
KTVY 070215Z AUTO 00000KT 10SM CLR 30/14 A2985 RMK AO2
KTVY 070155Z AUTO 31005KT 10SM CLR 31/14 A2985 RMK AO2
KTVY 070135Z AUTO 33008KT 10SM CLR 31/13 A2986 RMK AO2
KTVY 070115Z AUTO 01007KT 10SM CLR 32/11 A2986 RMK AO2
KTVY 070055Z AUTO 36007KT 10SM CLR 32/12 A2987 RMK AO2
KTVY 070035Z AUTO 35009KT 10SM CLR 32/14 A2988 RMK AO2
KTVY 070015Z AUTO 02007KT 10SM CLR 33/11 A2988 RMK AO2
KTVY 062355Z AUTO 02009KT 10SM CLR 33/12 A2989 RMK AO2
KTVY 062335Z AUTO 01007KT 10SM CLR 33/11 A2990 RMK AO2
KTVY 062315Z AUTO 01010KT 10SM CLR 33/12 A2991 RMK AO2
KTVY 062255Z AUTO 01011KT 10SM CLR 33/12 A2992 RMK AO2
KTVY 062235Z AUTO 03009KT 10SM CLR 33/11 A2993 RMK AO2
KTVY 062215Z AUTO 01008KT 10SM CLR 33/11 A2994 RMK AO2
KTVY 062155Z AUTO 01008KT 10SM CLR 33/10 A2994 RMK AO2
KTVY 062135Z AUTO 04009G14KT 10SM CLR 32/11 A2996 RMK AO2
KTVY 062115Z AUTO 02010KT 10SM CLR 32/11 A2996 RMK AO2
KTVY 062055Z AUTO 02010KT 10SM CLR 32/11 A2997 RMK AO2
KTVY 062035Z AUTO 36008G14KT 10SM CLR 31/10 A2998 RMK AO2
KTVY 062015Z AUTO 36008KT 10SM CLR 31/10 A2998 RMK AO2
KTVY 061955Z AUTO 35010G15KT 10SM CLR 31/11 A2999 RMK AO2
KTVY 061935Z AUTO 36008KT 10SM CLR 31/10 A3000 RMK AO2
KTVY 061915Z AUTO 01008KT 10SM CLR 30/10 A3000 RMK AO2
KTVY 061855Z AUTO 36007KT 10SM CLR 30/11 A3001 RMK AO2
KTVY 061835Z AUTO 35007KT 10SM CLR 30/11 A3001 RMK AO2
KTVY 061815Z AUTO 36006KT 10SM CLR 30/11 A3002 RMK AO2
KTVY 061755Z AUTO 34006KT 10SM CLR 29/11 A3002 RMK AO2
KTVY 061735Z AUTO 35005KT 10SM CLR 28/11 A3002 RMK AO2
KTVY 061715Z AUTO 36005KT 10SM CLR 28/11 A3003 RMK AO2
KTVY 061655Z AUTO 33003KT 10SM CLR 27/11 A3003 RMK AO2
KTVY 061635Z AUTO 00000KT 10SM CLR 27/10 A3003 RMK AO2
KTVY 061615Z AUTO 00000KT 10SM CLR 27/10 A3003 RMK AO2
KTVY 061555Z AUTO 36003KT 10SM CLR 26/10 A3003 RMK AO2
KTVY 061535Z AUTO 21003KT 10SM CLR 25/11 A3003 RMK AO2
KTVY 061515Z AUTO 24005KT 10SM CLR 25/11 A3004 RMK AO2
KTVY 061455Z AUTO 27003KT 10SM CLR 24/11 A3003 RMK AO2
KTVY 061435Z AUTO 21003KT 10SM CLR 23/12 A3003 RMK AO2
KTVY 061415Z AUTO 19005KT 10SM CLR 23/11 A3004 RMK AO2
KTVY 061355Z AUTO 20005KT 10SM CLR 22/10 A3003 RMK AO2
KTVY 061335Z AUTO 18004KT 10SM CLR 20/10 A3003 RMK AO2
KTVY 061315Z AUTO 23004KT 10SM CLR 17/10 A3003 RMK AO2
KTVY 061255Z AUTO 19006KT 10SM CLR 14/09 A3003 RMK AO2
KTVY 061235Z AUTO 18005KT 10SM CLR 15/08 A3002 RMK AO2
KTVY 061215Z AUTO 00000KT 10SM CLR 14/08 A3002 RMK AO2
KTVY 061155Z AUTO 17007KT 10SM CLR 13/08 A3001 RMK AO2
KTVY 061135Z AUTO 16007KT 10SM CLR 14/08 A3001 RMK AO2
KTVY 061115Z AUTO 16005KT 10SM CLR 15/09 A3000 RMK AO2
KTVY 061055Z AUTO 17007KT 10SM CLR 14/10 A2999 RMK AO2
KTVY 061035Z AUTO 16007KT 10SM CLR 15/10 A2999 RMK AO2
KTVY 061015Z AUTO 16007KT 10SM CLR 15/09 A2999 RMK AO2
KTVY 060955Z AUTO 20004KT 10SM CLR 16/10 A2999 RMK AO2
KTVY 060935Z AUTO 18006KT 10SM CLR 15/10 A2999 RMK AO2
KTVY 060915Z AUTO 21005KT 10SM CLR 18/10 A2998 RMK AO2
KTVY 060855Z AUTO 19006KT 10SM CLR 16/07 A2998 RMK AO2
KTVY 060835Z AUTO 18005KT 10SM CLR 17/07 A2998 RMK AO2
KTVY 060815Z AUTO 18005KT 10SM CLR 17/06 A2998 RMK AO2
KTVY 060755Z AUTO 20004KT 10SM CLR 18/05 A2997 RMK AO2
KTVY 060735Z AUTO 23007KT 10SM CLR 17/06 A2997 RMK AO2
KTVY 060715Z AUTO 17008KT 10SM CLR 18/05 A2995 RMK AO2
KTVY 060655Z AUTO 16008KT 10SM CLR 16/06 A2996 RMK AO2
KTVY 060635Z AUTO 15006KT 10SM CLR 16/07 A2997 RMK AO2
KTVY 060615Z AUTO 14004KT 10SM CLR 17/07 A2997 RMK AO2
KTVY 060555Z AUTO 13006KT 10SM CLR 18/07 A2997 RMK AO2
KTVY 060535Z AUTO 17007KT 10SM CLR 19/06 A2997 RMK AO2
KTVY 060515Z AUTO 16007KT 10SM CLR 20/06 A2997 RMK AO2
KTVY 060455Z AUTO 18008KT 10SM CLR 20/07 A2997 RMK AO2
KTVY 060435Z AUTO 19007KT 10SM CLR 22/07 A2997 RMK AO2
KTVY 060415Z AUTO 19008KT 10SM CLR 22/08 A2997 RMK AO2
KTVY 060355Z AUTO 18009KT 10SM CLR 21/08 A2995 RMK AO2
KTVY 060335Z AUTO 16005KT 10SM CLR 23/10 A2996 RMK AO2
KTVY 060315Z AUTO 15003KT 10SM CLR 24/10 A2996 RMK AO2
KTVY 060255Z AUTO 00000KT 10SM CLR 27/10 A2996 RMK AO2
KTVY 060235Z AUTO 06004KT 10SM CLR 28/10 A2996 RMK AO2
KTVY 060215Z AUTO 02006KT 10SM CLR 30/10 A2996 RMK AO2
KTVY 060155Z AUTO 02007KT 10SM CLR 31/10 A2996 RMK AO2
KTVY 060135Z AUTO 01006KT 10SM CLR 31/11 A2996 RMK AO2